RYR26PB LHBP-LFBO
Flight info
| Callsign | RYR26PB |
|---|---|
| Flight time | 2h 14m |
| Altitude | 38000 |
| Route | GILEP DCT ZOLKU DCT SUNIS DCT ABTAN DCT DETSA DCT BAKOR DCT TISAX DCT SAFFA DCT LUTIX DCT BENOT DCT NEMOS DCT NINTU DCT MEBAK DCT REPSI DCT LERGA DCT MINSO DCT NARAK |
| Aircraft | B38M/M-SDE1FGHILORVWXY/HB1 |
Departure
| Time | 2026-05-04 17:38 |
|---|---|
| Airport | Budapest Liszt Ferenc International Airport (LHBP) |
Arrival
| Time | 2026-05-04 19:53 |
|---|---|
| Airport | Toulouse-Blagnac Airport (LFBO) |
| Time | Latitude | Longitude | Altitude | Speed | Heading |
|---|---|---|---|---|---|
| 2026-05-04 16:58 | 47.43564 | 19.26393 | 460 ft | 0 kts | 222° |
| 2026-05-04 16:58 | 47.43565 | 19.26393 | 460 ft | 1 kts | 222° |
| 2026-05-04 16:59 | 47.43565 | 19.26394 | 460 ft | 0 kts | 222° |
| 2026-05-04 17:28 | 47.43579 | 19.26412 | 460 ft | 3 kts | 223° |
| 2026-05-04 17:29 | 47.43569 | 19.26507 | 457 ft | 4 kts | 314° |
| 2026-05-04 17:29 | 47.43561 | 19.26519 | 457 ft | 0 kts | 312° |
| 2026-05-04 17:33 | 47.43575 | 19.26496 | 459 ft | 5 kts | 312° |
| 2026-05-04 17:33 | 47.43605 | 19.26447 | 456 ft | 8 kts | 312° |
| 2026-05-04 17:34 | 47.43772 | 19.26423 | 460 ft | 11 kts | 357° |
| 2026-05-04 17:34 | 47.43831 | 19.26350 | 460 ft | 13 kts | 312° |
| 2026-05-04 17:35 | 47.44056 | 19.25984 | 460 ft | 19 kts | 312° |
| 2026-05-04 17:35 | 47.44214 | 19.25731 | 461 ft | 14 kts | 313° |
| 2026-05-04 17:35 | 47.44279 | 19.25627 | 461 ft | 15 kts | 313° |
| 2026-05-04 17:36 | 47.44359 | 19.25559 | 461 ft | 9 kts | 351° |
| 2026-05-04 17:36 | 47.44428 | 19.25554 | 462 ft | 10 kts | 360° |
| 2026-05-04 17:36 | 47.44472 | 19.25608 | 465 ft | 7 kts | 57° |
| 2026-05-04 17:36 | 47.44492 | 19.25656 | 472 ft | 5 kts | 62° |
| 2026-05-04 17:37 | 47.44506 | 19.25724 | 477 ft | 10 kts | 82° |
| 2026-05-04 17:37 | 47.44495 | 19.25835 | 474 ft | 7 kts | 126° |
| 2026-05-04 17:37 | 47.44471 | 19.25875 | 478 ft | 6 kts | 131° |
| 2026-05-04 17:37 | 47.44407 | 19.25980 | 475 ft | 32 kts | 133° |
| 2026-05-04 17:38 | 47.44093 | 19.26481 | 470 ft | 99 kts | 132° |
| 2026-05-04 17:38 | 47.43721 | 19.27079 | 470 ft | 136 kts | 133° |
| 2026-05-04 17:38 | 47.42734 | 19.28663 | 831 ft | 167 kts | 135° |
| 2026-05-04 17:38 | 47.42022 | 19.30025 | 1519 ft | 167 kts | 123° |
| 2026-05-04 17:39 | 47.40830 | 19.33136 | 2677 ft | 192 kts | 123° |
| 2026-05-04 17:39 | 47.40135 | 19.34970 | 3075 ft | 218 kts | 122° |
| 2026-05-04 17:39 | 47.39359 | 19.37036 | 3609 ft | 238 kts | 122° |
| 2026-05-04 17:40 | 47.38498 | 19.39169 | 4304 ft | 249 kts | 131° |
| 2026-05-04 17:40 | 47.37088 | 19.40745 | 4878 ft | 260 kts | 164° |
| 2026-05-04 17:40 | 47.35327 | 19.40920 | 5800 ft | 259 kts | 191° |
| 2026-05-04 17:40 | 47.33668 | 19.39825 | 6575 ft | 266 kts | 221° |
| 2026-05-04 17:41 | 47.32617 | 19.37618 | 7398 ft | 270 kts | 246° |
| 2026-05-04 17:41 | 47.31805 | 19.35076 | 8227 ft | 274 kts | 238° |
| 2026-05-04 17:41 | 47.30837 | 19.32664 | 9069 ft | 278 kts | 239° |
| 2026-05-04 17:41 | 47.29861 | 19.30166 | 9929 ft | 281 kts | 239° |
| 2026-05-04 17:42 | 47.28889 | 19.27647 | 10523 ft | 294 kts | 239° |
| 2026-05-04 17:42 | 47.27841 | 19.24936 | 10890 ft | 314 kts | 239° |
| 2026-05-04 17:42 | 47.26952 | 19.21886 | 11384 ft | 329 kts | 257° |
| 2026-05-04 17:42 | 47.26789 | 19.18530 | 12140 ft | 335 kts | 268° |
| 2026-05-04 17:43 | 47.26714 | 19.15070 | 12931 ft | 340 kts | 266° |
| 2026-05-04 17:43 | 47.26617 | 19.11601 | 13785 ft | 343 kts | 266° |
| 2026-05-04 17:43 | 47.26508 | 19.08058 | 14524 ft | 348 kts | 266° |
| 2026-05-04 17:43 | 47.26430 | 19.05682 | 15047 ft | 350 kts | 266° |
| 2026-05-04 17:44 | 47.26272 | 19.00892 | 16102 ft | 355 kts | 266° |
| 2026-05-04 17:44 | 47.26147 | 18.97226 | 16904 ft | 358 kts | 267° |
| 2026-05-04 17:44 | 47.26020 | 18.93519 | 17587 ft | 364 kts | 266° |
| 2026-05-04 17:44 | 47.25890 | 18.89789 | 17952 ft | 368 kts | 266° |
| 2026-05-04 17:45 | 47.25760 | 18.86064 | 18042 ft | 367 kts | 266° |
| 2026-05-04 17:45 | 47.25627 | 18.82299 | 18027 ft | 366 kts | 267° |
| 2026-05-04 17:45 | 47.25493 | 18.78580 | 18287 ft | 368 kts | 266° |
| 2026-05-04 17:45 | 47.25359 | 18.74813 | 19012 ft | 368 kts | 267° |
| 2026-05-04 17:46 | 47.25221 | 18.71007 | 19620 ft | 372 kts | 267° |
| 2026-05-04 17:46 | 47.25082 | 18.67206 | 20216 ft | 377 kts | 267° |
| 2026-05-04 17:46 | 47.24938 | 18.63324 | 20872 ft | 379 kts | 267° |
| 2026-05-04 17:46 | 47.24796 | 18.59487 | 21478 ft | 382 kts | 267° |
| 2026-05-04 17:47 | 47.24647 | 18.55546 | 22117 ft | 385 kts | 267° |
| 2026-05-04 17:47 | 47.24496 | 18.51556 | 22670 ft | 390 kts | 267° |
| 2026-05-04 17:47 | 47.24344 | 18.47598 | 23256 ft | 393 kts | 266° |
| 2026-05-04 17:47 | 47.24188 | 18.43558 | 23841 ft | 394 kts | 267° |
| 2026-05-04 17:48 | 47.24032 | 18.39554 | 24314 ft | 397 kts | 267° |
| 2026-05-04 17:48 | 47.23926 | 18.36844 | 24666 ft | 398 kts | 267° |
| 2026-05-04 17:48 | 47.23708 | 18.31347 | 25231 ft | 404 kts | 267° |
| 2026-05-04 17:48 | 47.23544 | 18.27241 | 25682 ft | 407 kts | 267° |
| 2026-05-04 17:49 | 47.23374 | 18.23063 | 26140 ft | 409 kts | 267° |
| 2026-05-04 17:49 | 47.23203 | 18.18850 | 26587 ft | 412 kts | 268° |
| 2026-05-04 17:49 | 47.23031 | 18.14682 | 27026 ft | 415 kts | 267° |
| 2026-05-04 17:49 | 47.22853 | 18.10412 | 27415 ft | 418 kts | 267° |
| 2026-05-04 17:50 | 47.22675 | 18.06148 | 27823 ft | 422 kts | 267° |
| 2026-05-04 17:50 | 47.22492 | 18.01825 | 28288 ft | 423 kts | 268° |
| 2026-05-04 17:50 | 47.22307 | 17.97486 | 28736 ft | 425 kts | 268° |
| 2026-05-04 17:50 | 47.22120 | 17.93129 | 29087 ft | 429 kts | 267° |
| 2026-05-04 17:51 | 47.21930 | 17.88756 | 29458 ft | 432 kts | 268° |
| 2026-05-04 17:51 | 47.21735 | 17.84315 | 29897 ft | 434 kts | 268° |
| 2026-05-04 17:51 | 47.21539 | 17.79875 | 30237 ft | 436 kts | 268° |
| 2026-05-04 17:51 | 47.21342 | 17.75449 | 30545 ft | 439 kts | 268° |
| 2026-05-04 17:52 | 47.21139 | 17.70939 | 30875 ft | 441 kts | 267° |
| 2026-05-04 17:52 | 47.20933 | 17.66401 | 31203 ft | 444 kts | 268° |
| 2026-05-04 17:52 | 47.20728 | 17.61901 | 31544 ft | 445 kts | 268° |
| 2026-05-04 17:52 | 47.20517 | 17.57331 | 31867 ft | 447 kts | 268° |
| 2026-05-04 17:53 | 47.20306 | 17.52813 | 32181 ft | 449 kts | 268° |
| 2026-05-04 17:53 | 47.20089 | 17.48193 | 32548 ft | 450 kts | 268° |
| 2026-05-04 17:53 | 47.19874 | 17.43646 | 33011 ft | 449 kts | 268° |
| 2026-05-04 17:53 | 47.19655 | 17.39045 | 33492 ft | 447 kts | 268° |
| 2026-05-04 17:54 | 47.19439 | 17.34537 | 33967 ft | 445 kts | 268° |
| 2026-05-04 17:54 | 47.19218 | 17.29999 | 34367 ft | 443 kts | 268° |
| 2026-05-04 17:54 | 47.18997 | 17.25476 | 34733 ft | 443 kts | 268° |
| 2026-05-04 17:54 | 47.18773 | 17.20945 | 35096 ft | 442 kts | 268° |
| 2026-05-04 17:55 | 47.18552 | 17.16494 | 35434 ft | 441 kts | 267° |
| 2026-05-04 17:55 | 47.18326 | 17.11991 | 35806 ft | 439 kts | 267° |
| 2026-05-04 17:55 | 47.18100 | 17.07514 | 36192 ft | 438 kts | 267° |
| 2026-05-04 17:55 | 47.17875 | 17.03084 | 36508 ft | 437 kts | 267° |
| 2026-05-04 17:56 | 47.17646 | 16.98616 | 36830 ft | 436 kts | 266° |
| 2026-05-04 17:56 | 47.17416 | 16.94179 | 37146 ft | 435 kts | 266° |
| 2026-05-04 17:56 | 47.17263 | 16.91233 | 37347 ft | 435 kts | 266° |
| 2026-05-04 17:56 | 47.16954 | 16.85342 | 37740 ft | 434 kts | 266° |
| 2026-05-04 17:57 | 47.16720 | 16.80914 | 37982 ft | 434 kts | 266° |
| 2026-05-04 17:57 | 47.16484 | 16.76486 | 37998 ft | 434 kts | 266° |
| 2026-05-04 17:57 | 47.15973 | 16.67722 | 37985 ft | 431 kts | 265° |
| 2026-05-04 17:58 | 47.15516 | 16.60407 | 37971 ft | 430 kts | 265° |
| 2026-05-04 17:58 | 47.14969 | 16.51688 | 37973 ft | 430 kts | 265° |
| 2026-05-04 17:59 | 47.14413 | 16.42915 | 37973 ft | 430 kts | 265° |
| 2026-05-04 18:00 | 47.13568 | 16.29812 | 37973 ft | 430 kts | 265° |
| 2026-05-04 18:00 | 47.12998 | 16.21091 | 37976 ft | 430 kts | 265° |
| 2026-05-04 18:01 | 47.12417 | 16.12310 | 37977 ft | 430 kts | 265° |
| 2026-05-04 18:01 | 47.11836 | 16.03631 | 37971 ft | 430 kts | 265° |
| 2026-05-04 18:02 | 47.10946 | 15.90523 | 37964 ft | 430 kts | 265° |
| 2026-05-04 18:02 | 47.10346 | 15.81819 | 37969 ft | 429 kts | 264° |
| 2026-05-04 18:03 | 47.09738 | 15.73088 | 37968 ft | 427 kts | 264° |
| 2026-05-04 18:03 | 47.09130 | 15.64459 | 37965 ft | 428 kts | 264° |
| 2026-05-04 18:04 | 47.08510 | 15.55739 | 37966 ft | 428 kts | 264° |
| 2026-05-04 18:05 | 47.07573 | 15.42763 | 37966 ft | 428 kts | 264° |
| 2026-05-04 18:05 | 47.06940 | 15.34105 | 37967 ft | 428 kts | 264° |
| 2026-05-04 18:06 | 47.05974 | 15.21069 | 37971 ft | 427 kts | 264° |
| 2026-05-04 18:06 | 47.05326 | 15.12436 | 37975 ft | 427 kts | 264° |
| 2026-05-04 18:07 | 47.04668 | 15.03752 | 37980 ft | 427 kts | 264° |
| 2026-05-04 18:07 | 47.04007 | 14.95121 | 37983 ft | 427 kts | 264° |
| 2026-05-04 18:08 | 47.03339 | 14.86490 | 37979 ft | 426 kts | 264° |
| 2026-05-04 18:08 | 47.02661 | 14.77817 | 38000 ft | 428 kts | 264° |
| 2026-05-04 18:09 | 47.01288 | 14.60499 | 38007 ft | 429 kts | 264° |
| 2026-05-04 18:10 | 47.00593 | 14.51869 | 37997 ft | 427 kts | 264° |
| 2026-05-04 18:10 | 46.99887 | 14.43181 | 38000 ft | 429 kts | 263° |
| 2026-05-04 18:11 | 46.99178 | 14.34536 | 37994 ft | 429 kts | 263° |
| 2026-05-04 18:11 | 46.98459 | 14.25851 | 38004 ft | 429 kts | 263° |
| 2026-05-04 18:12 | 46.97736 | 14.17202 | 38004 ft | 429 kts | 263° |
| 2026-05-04 18:12 | 46.97004 | 14.08516 | 38000 ft | 429 kts | 263° |
| 2026-05-04 18:13 | 46.96269 | 13.99884 | 38012 ft | 428 kts | 263° |
| 2026-05-04 18:14 | 46.95151 | 13.86898 | 38016 ft | 428 kts | 263° |
| 2026-05-04 18:14 | 46.94402 | 13.78295 | 38026 ft | 427 kts | 263° |
| 2026-05-04 18:15 | 46.92879 | 13.61038 | 38038 ft | 427 kts | 263° |
| 2026-05-04 18:16 | 46.92110 | 13.52426 | 38044 ft | 429 kts | 262° |
| 2026-05-04 18:16 | 46.91332 | 13.43799 | 38032 ft | 429 kts | 262° |
| 2026-05-04 18:17 | 46.90149 | 13.30828 | 38052 ft | 429 kts | 262° |
| 2026-05-04 18:18 | 46.88951 | 13.17842 | 38059 ft | 429 kts | 262° |
| 2026-05-04 18:18 | 46.88146 | 13.09222 | 38059 ft | 429 kts | 262° |
| 2026-05-04 18:19 | 46.86925 | 12.96264 | 38059 ft | 429 kts | 262° |
| 2026-05-04 18:19 | 46.86105 | 12.87655 | 38060 ft | 428 kts | 262° |
| 2026-05-04 18:20 | 46.85282 | 12.79080 | 38064 ft | 428 kts | 262° |
| 2026-05-04 18:20 | 46.84445 | 12.70442 | 38067 ft | 427 kts | 262° |
| 2026-05-04 18:21 | 46.83613 | 12.61912 | 38091 ft | 425 kts | 261° |
| 2026-05-04 18:21 | 46.82773 | 12.53373 | 38086 ft | 426 kts | 261° |
| 2026-05-04 18:22 | 46.81922 | 12.44788 | 38158 ft | 427 kts | 261° |
| 2026-05-04 18:22 | 46.81494 | 12.40490 | 38464 ft | 426 kts | 261° |
| 2026-05-04 18:22 | 46.81069 | 12.36246 | 38742 ft | 426 kts | 261° |
| 2026-05-04 18:23 | 46.80638 | 12.31951 | 38958 ft | 425 kts | 261° |
| 2026-05-04 18:23 | 46.79946 | 12.27800 | 39145 ft | 425 kts | 248° |
| 2026-05-04 18:23 | 46.78679 | 12.23901 | 39353 ft | 424 kts | 245° |
| 2026-05-04 18:23 | 46.77386 | 12.20016 | 39487 ft | 425 kts | 244° |
| 2026-05-04 18:24 | 46.76071 | 12.16146 | 39588 ft | 425 kts | 244° |
| 2026-05-04 18:24 | 46.74756 | 12.12333 | 39750 ft | 425 kts | 244° |
| 2026-05-04 18:24 | 46.73417 | 12.08483 | 39900 ft | 425 kts | 244° |
| 2026-05-04 18:24 | 46.72071 | 12.04631 | 40043 ft | 425 kts | 244° |
| 2026-05-04 18:25 | 46.69376 | 11.96939 | 40056 ft | 424 kts | 244° |
| 2026-05-04 18:25 | 46.66700 | 11.89323 | 40056 ft | 423 kts | 244° |
| 2026-05-04 18:26 | 46.64462 | 11.82970 | 40034 ft | 423 kts | 244° |
| 2026-05-04 18:26 | 46.61609 | 11.73913 | 39992 ft | 422 kts | 258° |
| 2026-05-04 18:27 | 46.61353 | 11.69694 | 40027 ft | 419 kts | 271° |
| 2026-05-04 18:27 | 46.61465 | 11.65485 | 40028 ft | 422 kts | 272° |
| 2026-05-04 18:27 | 46.61831 | 11.56940 | 40050 ft | 425 kts | 273° |
| 2026-05-04 18:28 | 46.62282 | 11.48352 | 39977 ft | 424 kts | 274° |
| 2026-05-04 18:28 | 46.62751 | 11.39801 | 40034 ft | 425 kts | 274° |
| 2026-05-04 18:29 | 46.63139 | 11.32684 | 40026 ft | 423 kts | 273° |
| 2026-05-04 18:29 | 46.63675 | 11.22716 | 40110 ft | 423 kts | 273° |
| 2026-05-04 18:30 | 46.64350 | 11.09935 | 40117 ft | 424 kts | 273° |
| 2026-05-04 18:31 | 46.65259 | 11.01498 | 40133 ft | 423 kts | 279° |
| 2026-05-04 18:31 | 46.66426 | 10.93082 | 40114 ft | 425 kts | 280° |
| 2026-05-04 18:32 | 46.67603 | 10.84676 | 40079 ft | 423 kts | 280° |
| 2026-05-04 18:32 | 46.68777 | 10.76253 | 40135 ft | 425 kts | 279° |
| 2026-05-04 18:33 | 46.69941 | 10.67858 | 40097 ft | 423 kts | 279° |
| 2026-05-04 18:33 | 46.71103 | 10.59429 | 40132 ft | 425 kts | 279° |
| 2026-05-04 18:34 | 46.72257 | 10.51000 | 40118 ft | 425 kts | 279° |
| 2026-05-04 18:34 | 46.73411 | 10.42540 | 40122 ft | 426 kts | 279° |
| 2026-05-04 18:35 | 46.74715 | 10.34145 | 40124 ft | 426 kts | 281° |
| 2026-05-04 18:35 | 46.76020 | 10.25706 | 40099 ft | 425 kts | 281° |
| 2026-05-04 18:36 | 46.77308 | 10.17318 | 40106 ft | 427 kts | 281° |
| 2026-05-04 18:36 | 46.78605 | 10.08829 | 40107 ft | 428 kts | 281° |
| 2026-05-04 18:37 | 46.79889 | 10.00374 | 40095 ft | 428 kts | 281° |
| 2026-05-04 18:37 | 46.81171 | 9.91889 | 40101 ft | 428 kts | 281° |
| 2026-05-04 18:38 | 46.82454 | 9.83358 | 40077 ft | 428 kts | 281° |
| 2026-05-04 18:38 | 46.83719 | 9.74891 | 40080 ft | 430 kts | 280° |
| 2026-05-04 18:39 | 46.84988 | 9.66352 | 40062 ft | 429 kts | 280° |
| 2026-05-04 18:39 | 46.86247 | 9.57839 | 40045 ft | 429 kts | 280° |
| 2026-05-04 18:40 | 46.87501 | 9.49312 | 40023 ft | 429 kts | 280° |
| 2026-05-04 18:40 | 46.88743 | 9.40815 | 40048 ft | 430 kts | 279° |
| 2026-05-04 18:41 | 46.89981 | 9.32304 | 40035 ft | 429 kts | 280° |
| 2026-05-04 18:41 | 46.91221 | 9.23735 | 40014 ft | 428 kts | 280° |
| 2026-05-04 18:42 | 46.92443 | 9.15232 | 40039 ft | 429 kts | 279° |
| 2026-05-04 18:42 | 46.93666 | 9.06684 | 40028 ft | 428 kts | 279° |
| 2026-05-04 18:43 | 46.94875 | 8.98171 | 40022 ft | 428 kts | 279° |
| 2026-05-04 18:43 | 46.96084 | 8.89621 | 40012 ft | 427 kts | 279° |
| 2026-05-04 18:44 | 46.97278 | 8.81131 | 40010 ft | 428 kts | 279° |
| 2026-05-04 18:44 | 46.98274 | 8.74011 | 40012 ft | 428 kts | 279° |
| 2026-05-04 18:45 | 46.99458 | 8.65494 | 40009 ft | 427 kts | 279° |
| 2026-05-04 18:45 | 47.00834 | 8.55543 | 40006 ft | 427 kts | 279° |
| 2026-05-04 18:46 | 47.01813 | 8.48422 | 40006 ft | 427 kts | 279° |
| 2026-05-04 18:46 | 47.02972 | 8.39937 | 40015 ft | 426 kts | 279° |
| 2026-05-04 18:47 | 47.04135 | 8.31385 | 40019 ft | 427 kts | 279° |
| 2026-05-04 18:47 | 47.05285 | 8.22868 | 40042 ft | 427 kts | 278° |
| 2026-05-04 18:48 | 47.06428 | 8.14357 | 40014 ft | 425 kts | 278° |
| 2026-05-04 18:48 | 47.07567 | 8.05823 | 40021 ft | 425 kts | 278° |
| 2026-05-04 18:49 | 47.08696 | 7.97318 | 40015 ft | 425 kts | 278° |
| 2026-05-04 18:49 | 47.09818 | 7.88813 | 40011 ft | 425 kts | 278° |
| 2026-05-04 18:50 | 47.10939 | 7.80258 | 40006 ft | 425 kts | 278° |
| 2026-05-04 18:50 | 47.12048 | 7.71756 | 40002 ft | 425 kts | 278° |
| 2026-05-04 18:51 | 47.13150 | 7.63265 | 40006 ft | 425 kts | 278° |
| 2026-05-04 18:51 | 47.14258 | 7.54676 | 40005 ft | 426 kts | 278° |
| 2026-05-04 18:52 | 47.15354 | 7.46137 | 40023 ft | 427 kts | 278° |
| 2026-05-04 18:52 | 47.15684 | 7.41855 | 40013 ft | 422 kts | 265° |
| 2026-05-04 18:52 | 47.15236 | 7.37623 | 40026 ft | 417 kts | 251° |
| 2026-05-04 18:52 | 47.14072 | 7.33773 | 40018 ft | 416 kts | 238° |
| 2026-05-04 18:53 | 47.12460 | 7.30231 | 40024 ft | 417 kts | 235° |
| 2026-05-04 18:53 | 47.09012 | 7.23391 | 40017 ft | 417 kts | 232° |
| 2026-05-04 18:54 | 47.05420 | 7.16662 | 40016 ft | 417 kts | 232° |
| 2026-05-04 18:54 | 47.01811 | 7.10027 | 40017 ft | 417 kts | 232° |
| 2026-05-04 18:55 | 46.98197 | 7.03415 | 40016 ft | 417 kts | 232° |
| 2026-05-04 18:55 | 46.92730 | 6.93449 | 40027 ft | 417 kts | 231° |
| 2026-05-04 18:56 | 46.89109 | 6.86879 | 40021 ft | 417 kts | 231° |
| 2026-05-04 18:56 | 46.85452 | 6.80260 | 40018 ft | 417 kts | 231° |
| 2026-05-04 18:57 | 46.81809 | 6.73685 | 40017 ft | 417 kts | 231° |
| 2026-05-04 18:57 | 46.78149 | 6.67092 | 40023 ft | 417 kts | 231° |
| 2026-05-04 18:58 | 46.74509 | 6.60552 | 40015 ft | 417 kts | 231° |
| 2026-05-04 18:58 | 46.70840 | 6.53977 | 40021 ft | 417 kts | 231° |
| 2026-05-04 18:59 | 46.67196 | 6.47461 | 40042 ft | 416 kts | 231° |
| 2026-05-04 18:59 | 46.63547 | 6.40951 | 40019 ft | 415 kts | 231° |
| 2026-05-04 19:00 | 46.59879 | 6.34424 | 40029 ft | 415 kts | 231° |
| 2026-05-04 19:00 | 46.56220 | 6.27927 | 40031 ft | 415 kts | 231° |
| 2026-05-04 19:01 | 46.52571 | 6.21463 | 40033 ft | 415 kts | 231° |
| 2026-05-04 19:01 | 46.48908 | 6.14990 | 40035 ft | 415 kts | 231° |
| 2026-05-04 19:02 | 46.45224 | 6.08496 | 40033 ft | 415 kts | 230° |
| 2026-05-04 19:02 | 46.41561 | 6.02053 | 40042 ft | 415 kts | 230° |
| 2026-05-04 19:03 | 46.37886 | 5.95604 | 40022 ft | 417 kts | 230° |
| 2026-05-04 19:03 | 46.34168 | 5.89094 | 40020 ft | 417 kts | 230° |
| 2026-05-04 19:04 | 46.30482 | 5.82655 | 40026 ft | 417 kts | 230° |
| 2026-05-04 19:04 | 46.26793 | 5.76228 | 40015 ft | 417 kts | 230° |
| 2026-05-04 19:05 | 46.23077 | 5.69769 | 40012 ft | 417 kts | 230° |
| 2026-05-04 19:05 | 46.19383 | 5.63357 | 40025 ft | 417 kts | 230° |
| 2026-05-04 19:06 | 46.15657 | 5.56905 | 40024 ft | 417 kts | 230° |
| 2026-05-04 19:06 | 46.12356 | 5.50067 | 40029 ft | 418 kts | 235° |
| 2026-05-04 19:07 | 46.09044 | 5.43133 | 40001 ft | 418 kts | 234° |
| 2026-05-04 19:07 | 46.05750 | 5.36304 | 40000 ft | 418 kts | 234° |
| 2026-05-04 19:08 | 46.02418 | 5.29416 | 39989 ft | 418 kts | 234° |
| 2026-05-04 19:08 | 45.99092 | 5.22557 | 39979 ft | 419 kts | 234° |
| 2026-05-04 19:09 | 45.95750 | 5.15684 | 39977 ft | 419 kts | 234° |
| 2026-05-04 19:09 | 45.92417 | 5.08845 | 39976 ft | 420 kts | 234° |
| 2026-05-04 19:10 | 45.89045 | 5.01943 | 39971 ft | 420 kts | 234° |
| 2026-05-04 19:10 | 45.85695 | 4.95103 | 39959 ft | 420 kts | 234° |
| 2026-05-04 19:11 | 45.82337 | 4.88261 | 39969 ft | 421 kts | 234° |
| 2026-05-04 19:11 | 45.78953 | 4.81386 | 39961 ft | 421 kts | 234° |
| 2026-05-04 19:12 | 45.73884 | 4.71116 | 39963 ft | 421 kts | 234° |
| 2026-05-04 19:13 | 45.70504 | 4.64279 | 39975 ft | 422 kts | 234° |
| 2026-05-04 19:13 | 45.67121 | 4.57431 | 39967 ft | 422 kts | 234° |
| 2026-05-04 19:14 | 45.63739 | 4.50604 | 39968 ft | 422 kts | 234° |
| 2026-05-04 19:14 | 45.60363 | 4.43703 | 39963 ft | 422 kts | 236° |
| 2026-05-04 19:15 | 45.57139 | 4.36710 | 39966 ft | 422 kts | 236° |
| 2026-05-04 19:15 | 45.53899 | 4.29751 | 39964 ft | 422 kts | 236° |
| 2026-05-04 19:16 | 45.50626 | 4.22744 | 39968 ft | 422 kts | 236° |
| 2026-05-04 19:16 | 45.47380 | 4.15811 | 39966 ft | 421 kts | 236° |
| 2026-05-04 19:17 | 45.44127 | 4.08881 | 39969 ft | 421 kts | 236° |
| 2026-05-04 19:17 | 45.40869 | 4.01958 | 39967 ft | 421 kts | 236° |
| 2026-05-04 19:18 | 45.37614 | 3.95058 | 39966 ft | 421 kts | 236° |
| 2026-05-04 19:18 | 45.34348 | 3.88150 | 39966 ft | 421 kts | 235° |
| 2026-05-04 19:19 | 45.31059 | 3.81211 | 39967 ft | 421 kts | 235° |
| 2026-05-04 19:19 | 45.27792 | 3.74335 | 39962 ft | 420 kts | 235° |
| 2026-05-04 19:20 | 45.24525 | 3.67478 | 39961 ft | 420 kts | 235° |
| 2026-05-04 19:20 | 45.21246 | 3.60610 | 39966 ft | 421 kts | 235° |
| 2026-05-04 19:21 | 45.17973 | 3.53770 | 39956 ft | 420 kts | 235° |
| 2026-05-04 19:21 | 45.14668 | 3.46882 | 39955 ft | 421 kts | 235° |
| 2026-05-04 19:22 | 45.11392 | 3.40070 | 39960 ft | 419 kts | 235° |
| 2026-05-04 19:22 | 45.08088 | 3.33217 | 39957 ft | 420 kts | 235° |
| 2026-05-04 19:23 | 45.04805 | 3.26422 | 39954 ft | 419 kts | 235° |
| 2026-05-04 19:23 | 45.01511 | 3.19622 | 39955 ft | 420 kts | 235° |
| 2026-05-04 19:24 | 44.98219 | 3.12841 | 39908 ft | 420 kts | 235° |
| 2026-05-04 19:24 | 44.96560 | 3.09430 | 39724 ft | 419 kts | 235° |
| 2026-05-04 19:24 | 44.94925 | 3.06073 | 39513 ft | 417 kts | 235° |
| 2026-05-04 19:24 | 44.93273 | 3.02685 | 39324 ft | 416 kts | 234° |
| 2026-05-04 19:25 | 44.91644 | 2.99347 | 39120 ft | 416 kts | 234° |
| 2026-05-04 19:25 | 44.89989 | 2.95961 | 38915 ft | 415 kts | 234° |
| 2026-05-04 19:25 | 44.88369 | 2.92649 | 38724 ft | 415 kts | 234° |
| 2026-05-04 19:25 | 44.86719 | 2.89281 | 38501 ft | 414 kts | 234° |
| 2026-05-04 19:26 | 44.85092 | 2.85963 | 38242 ft | 413 kts | 234° |
| 2026-05-04 19:26 | 44.83468 | 2.82656 | 37741 ft | 410 kts | 234° |
| 2026-05-04 19:26 | 44.81843 | 2.79351 | 36698 ft | 410 kts | 233° |
| 2026-05-04 19:26 | 44.80212 | 2.76039 | 35789 ft | 410 kts | 232° |
| 2026-05-04 19:27 | 44.78596 | 2.72759 | 35108 ft | 409 kts | 232° |
| 2026-05-04 19:27 | 44.76972 | 2.69463 | 34481 ft | 407 kts | 232° |
| 2026-05-04 19:27 | 44.75365 | 2.66209 | 33824 ft | 407 kts | 231° |
| 2026-05-04 19:27 | 44.73744 | 2.62928 | 33118 ft | 406 kts | 231° |
| 2026-05-04 19:28 | 44.72127 | 2.59660 | 32507 ft | 403 kts | 231° |
| 2026-05-04 19:28 | 44.70552 | 2.56482 | 32011 ft | 398 kts | 231° |
| 2026-05-04 19:28 | 44.68974 | 2.53298 | 31508 ft | 394 kts | 231° |
| 2026-05-04 19:28 | 44.67407 | 2.50142 | 30997 ft | 392 kts | 231° |
| 2026-05-04 19:29 | 44.65841 | 2.46993 | 30477 ft | 398 kts | 231° |
| 2026-05-04 19:29 | 44.64240 | 2.43775 | 29905 ft | 401 kts | 231° |
| 2026-05-04 19:29 | 44.62657 | 2.40598 | 29284 ft | 401 kts | 231° |
| 2026-05-04 19:29 | 44.61056 | 2.37387 | 28748 ft | 399 kts | 231° |
| 2026-05-04 19:30 | 44.59462 | 2.34195 | 28217 ft | 396 kts | 231° |
| 2026-05-04 19:30 | 44.57896 | 2.31062 | 27689 ft | 394 kts | 231° |
| 2026-05-04 19:30 | 44.56316 | 2.27903 | 27201 ft | 392 kts | 231° |
| 2026-05-04 19:30 | 44.54744 | 2.24767 | 26659 ft | 390 kts | 231° |
| 2026-05-04 19:31 | 44.53209 | 2.21705 | 26143 ft | 387 kts | 231° |
| 2026-05-04 19:31 | 44.51661 | 2.18622 | 25642 ft | 384 kts | 231° |
| 2026-05-04 19:31 | 44.50126 | 2.15568 | 25135 ft | 382 kts | 231° |
| 2026-05-04 19:31 | 44.48593 | 2.12520 | 24641 ft | 380 kts | 232° |
| 2026-05-04 19:32 | 44.47088 | 2.09531 | 24155 ft | 378 kts | 232° |
| 2026-05-04 19:32 | 44.45573 | 2.06526 | 23678 ft | 376 kts | 232° |
| 2026-05-04 19:32 | 44.44058 | 2.03524 | 23131 ft | 374 kts | 232° |
| 2026-05-04 19:32 | 44.42563 | 2.00563 | 22626 ft | 371 kts | 232° |
| 2026-05-04 19:33 | 44.41088 | 1.97648 | 22164 ft | 368 kts | 232° |
| 2026-05-04 19:33 | 44.40102 | 1.95698 | 21857 ft | 366 kts | 232° |
| 2026-05-04 19:33 | 44.38160 | 1.91865 | 21263 ft | 361 kts | 232° |
| 2026-05-04 19:33 | 44.37194 | 1.89959 | 21007 ft | 359 kts | 232° |
| 2026-05-04 19:34 | 44.35753 | 1.87121 | 20558 ft | 356 kts | 232° |
| 2026-05-04 19:34 | 44.34318 | 1.84296 | 20116 ft | 354 kts | 232° |
| 2026-05-04 19:34 | 44.32885 | 1.81477 | 19457 ft | 358 kts | 232° |
| 2026-05-04 19:34 | 44.31454 | 1.78674 | 19012 ft | 356 kts | 231° |
| 2026-05-04 19:35 | 44.29694 | 1.76277 | 18538 ft | 350 kts | 212° |
| 2026-05-04 19:35 | 44.27508 | 1.74949 | 18197 ft | 345 kts | 194° |
| 2026-05-04 19:35 | 44.25148 | 1.74354 | 17789 ft | 341 kts | 190° |
| 2026-05-04 19:35 | 44.22839 | 1.73867 | 17400 ft | 337 kts | 189° |
| 2026-05-04 19:36 | 44.20519 | 1.73422 | 17023 ft | 333 kts | 188° |
| 2026-05-04 19:36 | 44.18206 | 1.73000 | 16638 ft | 334 kts | 188° |
| 2026-05-04 19:36 | 44.15919 | 1.72597 | 16264 ft | 334 kts | 188° |
| 2026-05-04 19:36 | 44.13625 | 1.72202 | 15890 ft | 333 kts | 188° |
| 2026-05-04 19:37 | 44.11324 | 1.71811 | 15514 ft | 332 kts | 188° |
| 2026-05-04 19:37 | 44.09047 | 1.71426 | 15159 ft | 331 kts | 188° |
| 2026-05-04 19:37 | 44.06746 | 1.71038 | 14781 ft | 331 kts | 189° |
| 2026-05-04 19:37 | 44.04450 | 1.70652 | 14417 ft | 330 kts | 188° |
| 2026-05-04 19:38 | 44.02188 | 1.70271 | 14032 ft | 329 kts | 189° |
| 2026-05-04 19:38 | 43.99912 | 1.69889 | 13651 ft | 327 kts | 188° |
| 2026-05-04 19:38 | 43.97691 | 1.69516 | 13238 ft | 324 kts | 188° |
| 2026-05-04 19:38 | 43.95436 | 1.69138 | 12857 ft | 324 kts | 188° |
| 2026-05-04 19:39 | 43.93213 | 1.68766 | 12508 ft | 324 kts | 188° |
| 2026-05-04 19:39 | 43.90979 | 1.68392 | 12133 ft | 320 kts | 188° |
| 2026-05-04 19:39 | 43.88786 | 1.68025 | 11784 ft | 317 kts | 188° |
| 2026-05-04 19:39 | 43.86592 | 1.67658 | 11431 ft | 314 kts | 188° |
| 2026-05-04 19:40 | 43.84427 | 1.67296 | 11083 ft | 311 kts | 188° |
| 2026-05-04 19:40 | 43.82316 | 1.66944 | 10715 ft | 303 kts | 189° |
| 2026-05-04 19:40 | 43.80258 | 1.66600 | 10382 ft | 290 kts | 188° |
| 2026-05-04 19:40 | 43.78281 | 1.66276 | 10079 ft | 283 kts | 189° |
| 2026-05-04 19:41 | 43.76339 | 1.65949 | 9730 ft | 282 kts | 189° |
| 2026-05-04 19:41 | 43.74385 | 1.65621 | 9388 ft | 281 kts | 189° |
| 2026-05-04 19:41 | 43.72444 | 1.65301 | 9077 ft | 279 kts | 189° |
| 2026-05-04 19:41 | 43.70537 | 1.64981 | 8751 ft | 277 kts | 189° |
| 2026-05-04 19:42 | 43.68620 | 1.64663 | 8433 ft | 276 kts | 189° |
| 2026-05-04 19:42 | 43.66716 | 1.64349 | 8124 ft | 273 kts | 189° |
| 2026-05-04 19:42 | 43.64861 | 1.64037 | 7967 ft | 271 kts | 189° |
| 2026-05-04 19:42 | 43.62994 | 1.63730 | 7979 ft | 263 kts | 189° |
| 2026-05-04 19:43 | 43.61221 | 1.63436 | 7940 ft | 251 kts | 190° |
| 2026-05-04 19:43 | 43.59545 | 1.63158 | 7983 ft | 236 kts | 189° |
| 2026-05-04 19:43 | 43.57919 | 1.62894 | 7993 ft | 233 kts | 190° |
| 2026-05-04 19:43 | 43.56334 | 1.62626 | 7973 ft | 232 kts | 189° |
| 2026-05-04 19:44 | 43.54728 | 1.62358 | 7905 ft | 234 kts | 189° |
| 2026-05-04 19:44 | 43.53083 | 1.62095 | 7493 ft | 241 kts | 187° |
| 2026-05-04 19:44 | 43.51393 | 1.62436 | 7023 ft | 253 kts | 159° |
| 2026-05-04 19:44 | 43.49791 | 1.63533 | 6544 ft | 261 kts | 152° |
| 2026-05-04 19:45 | 43.48192 | 1.64768 | 6019 ft | 270 kts | 152° |
| 2026-05-04 19:45 | 43.46483 | 1.65958 | 5402 ft | 278 kts | 165° |
| 2026-05-04 19:45 | 43.44595 | 1.66173 | 4926 ft | 271 kts | 193° |
| 2026-05-04 19:45 | 43.42949 | 1.65198 | 4734 ft | 247 kts | 223° |
| 2026-05-04 19:46 | 43.41976 | 1.63398 | 4654 ft | 226 kts | 254° |
| 2026-05-04 19:46 | 43.41864 | 1.61379 | 4577 ft | 208 kts | 286° |
| 2026-05-04 19:46 | 43.42435 | 1.59641 | 4518 ft | 196 kts | 301° |
| 2026-05-04 19:46 | 43.43120 | 1.58072 | 4481 ft | 185 kts | 302° |
| 2026-05-04 19:47 | 43.43783 | 1.56582 | 4420 ft | 181 kts | 304° |
| 2026-05-04 19:47 | 43.44609 | 1.55306 | 4366 ft | 181 kts | 317° |
| 2026-05-04 19:47 | 43.45579 | 1.54197 | 4327 ft | 181 kts | 320° |
| 2026-05-04 19:47 | 43.46577 | 1.53119 | 4182 ft | 183 kts | 321° |
| 2026-05-04 19:48 | 43.47583 | 1.52072 | 3986 ft | 181 kts | 321° |
| 2026-05-04 19:48 | 43.48582 | 1.51022 | 3754 ft | 179 kts | 321° |
| 2026-05-04 19:48 | 43.49571 | 1.49991 | 3528 ft | 177 kts | 321° |
| 2026-05-04 19:48 | 43.50532 | 1.48988 | 3311 ft | 175 kts | 321° |
| 2026-05-04 19:49 | 43.51502 | 1.47985 | 3108 ft | 168 kts | 320° |
| 2026-05-04 19:49 | 43.52418 | 1.47034 | 2875 ft | 164 kts | 320° |
| 2026-05-04 19:49 | 43.53296 | 1.46129 | 2655 ft | 150 kts | 319° |
| 2026-05-04 19:49 | 43.54088 | 1.45313 | 2472 ft | 134 kts | 319° |
| 2026-05-04 19:50 | 43.54789 | 1.44585 | 2332 ft | 123 kts | 319° |
| 2026-05-04 19:50 | 43.55472 | 1.43879 | 2154 ft | 122 kts | 317° |
| 2026-05-04 19:50 | 43.56147 | 1.43178 | 1960 ft | 121 kts | 318° |
| 2026-05-04 19:50 | 43.56822 | 1.42477 | 1799 ft | 121 kts | 318° |
| 2026-05-04 19:51 | 43.57496 | 1.41777 | 1635 ft | 122 kts | 319° |
| 2026-05-04 19:51 | 43.58184 | 1.41062 | 1474 ft | 126 kts | 319° |
| 2026-05-04 19:51 | 43.58905 | 1.40315 | 1261 ft | 134 kts | 320° |
| 2026-05-04 19:51 | 43.59674 | 1.39513 | 1069 ft | 140 kts | 322° |
| 2026-05-04 19:52 | 43.60447 | 1.38728 | 898 ft | 134 kts | 316° |
| 2026-05-04 19:52 | 43.61184 | 1.37932 | 740 ft | 136 kts | 319° |
| 2026-05-04 19:52 | 43.61941 | 1.37162 | 530 ft | 133 kts | 321° |
| 2026-05-04 19:52 | 43.62614 | 1.36463 | 496 ft | 105 kts | 322° |
| 2026-05-04 19:53 | 43.63125 | 1.35927 | 496 ft | 83 kts | 323° |
| 2026-05-04 19:53 | 43.63442 | 1.35603 | 496 ft | 32 kts | 323° |
| 2026-05-04 19:53 | 43.63551 | 1.35504 | 492 ft | 12 kts | 351° |
| 2026-05-04 19:53 | 43.63619 | 1.35570 | 493 ft | 14 kts | 53° |
| 2026-05-04 19:54 | 43.63683 | 1.35690 | 491 ft | 17 kts | 53° |
| 2026-05-04 19:54 | 43.63760 | 1.35832 | 492 ft | 19 kts | 52° |
| 2026-05-04 19:54 | 43.63816 | 1.35945 | 494 ft | 13 kts | 78° |
| 2026-05-04 19:54 | 43.63762 | 1.36048 | 490 ft | 15 kts | 143° |
| 2026-05-04 19:55 | 43.63669 | 1.36145 | 496 ft | 18 kts | 143° |
| 2026-05-04 19:55 | 43.63559 | 1.36259 | 493 ft | 21 kts | 143° |
| 2026-05-04 19:55 | 43.63444 | 1.36379 | 493 ft | 19 kts | 143° |
| 2026-05-04 19:55 | 43.63330 | 1.36498 | 487 ft | 22 kts | 143° |
| 2026-05-04 19:56 | 43.63202 | 1.36630 | 492 ft | 23 kts | 143° |
| 2026-05-04 19:56 | 43.63070 | 1.36766 | 491 ft | 22 kts | 143° |
| 2026-05-04 19:56 | 43.62942 | 1.36899 | 493 ft | 22 kts | 143° |
| 2026-05-04 19:56 | 43.62831 | 1.37014 | 492 ft | 22 kts | 142° |
| 2026-05-04 19:57 | 43.62703 | 1.37148 | 496 ft | 21 kts | 143° |
| 2026-05-04 19:57 | 43.62594 | 1.37260 | 494 ft | 13 kts | 143° |
| 2026-05-04 19:57 | 43.62574 | 1.37357 | 491 ft | 13 kts | 63° |
| 2026-05-04 19:57 | 43.62631 | 1.37469 | 491 ft | 16 kts | 56° |
| 2026-05-04 19:58 | 43.62665 | 1.37542 | 494 ft | 11 kts | 58° |
| 2026-05-04 19:58 | 43.62721 | 1.37633 | 489 ft | 8 kts | 34° |
| 2026-05-04 19:58 | 43.62753 | 1.37678 | 491 ft | 3 kts | 53° |
| 2026-05-04 19:58 | 43.62763 | 1.37697 | 488 ft | 1 kts | 53° |
| 2026-05-04 19:59 | 43.62765 | 1.37700 | 489 ft | 0 kts | 53° |